sensor_id;sensor_type;location;lat;lon;timestamp;pressure;altitude;pressure_sealevel;temperature;humidity
41800;BME280;27468;47.460;19.034;2023-08-07T00:01:28;99554.50;;;15.71;91.98
41800;BME280;27468;47.460;19.034;2023-08-07T00:03:54;99568.06;;;15.82;95.81
41800;BME280;27468;47.460;19.034;2023-08-07T00:06:19;99548.31;;;15.70;92.63
41800;BME280;27468;47.460;19.034;2023-08-07T00:08:44;99540.59;;;15.66;93.08
41800;BME280;27468;47.460;19.034;2023-08-07T00:11:10;99550.56;;;15.78;95.13
41800;BME280;27468;47.460;19.034;2023-08-07T00:13:36;99544.16;;;15.82;94.13
41800;BME280;27468;47.460;19.034;2023-08-07T00:16:02;99530.31;;;15.75;91.20
41800;BME280;27468;47.460;19.034;2023-08-07T00:18:28;99495.38;;;15.50;92.89
41800;BME280;27468;47.460;19.034;2023-08-07T00:20:54;99500.25;;;15.59;94.17
41800;BME280;27468;47.460;19.034;2023-08-07T00:23:19;99517.78;;;15.62;93.45
41800;BME280;27468;47.460;19.034;2023-08-07T00:25:45;99511.31;;;15.50;91.76
41800;BME280;27468;47.460;19.034;2023-08-07T00:28:10;99541.03;;;15.74;96.22
41800;BME280;27468;47.460;19.034;2023-08-07T00:30:36;99496.03;;;15.38;93.83
41800;BME280;27468;47.460;19.034;2023-08-07T00:33:01;99550.97;;;15.70;93.87
41800;BME280;27468;47.460;19.034;2023-08-07T00:35:26;99540.50;;;15.67;96.65
41800;BME280;27468;47.460;19.034;2023-08-07T00:37:52;99506.09;;;15.48;95.38
41800;BME280;27468;47.460;19.034;2023-08-07T00:40:17;99507.03;;;15.47;93.67
41800;BME280;27468;47.460;19.034;2023-08-07T00:42:43;99552.59;;;15.73;95.84
41800;BME280;27468;47.460;19.034;2023-08-07T00:45:08;99551.91;;;15.69;95.18
41800;BME280;27468;47.460;19.034;2023-08-07T00:47:34;99497.53;;;15.43;93.66
41800;BME280;27468;47.460;19.034;2023-08-07T00:50:01;99536.38;;;15.62;92.70
41800;BME280;27468;47.460;19.034;2023-08-07T00:52:27;99553.78;;;15.67;92.36
41800;BME280;27468;47.460;19.034;2023-08-07T00:54:53;99539.69;;;15.49;91.04
41800;BME280;27468;47.460;19.034;2023-08-07T00:57:19;99556.53;;;15.66;96.77
41800;BME280;27468;47.460;19.034;2023-08-07T00:59:48;99497.31;;;15.31;93.04
41800;BME280;27468;47.460;19.034;2023-08-07T01:02:14;99555.59;;;15.67;98.47
41800;BME280;27468;47.460;19.034;2023-08-07T01:04:40;99546.56;;;15.53;95.00
41800;BME280;27468;47.460;19.034;2023-08-07T01:07:06;99542.50;;;15.46;93.09
41800;BME280;27468;47.460;19.034;2023-08-07T01:09:32;99541.56;;;15.47;93.04
41800;BME280;27468;47.460;19.034;2023-08-07T01:12:18;99505.81;;;15.37;94.06
41800;BME280;27468;47.460;19.034;2023-08-07T01:15:30;99558.56;;;15.61;94.10
41800;BME280;27468;47.460;19.034;2023-08-07T01:17:37;99505.34;;;15.29;92.45
41800;BME280;27468;47.460;19.034;2023-08-07T01:20:02;99550.06;;;15.54;93.72
41800;BME280;27468;47.460;19.034;2023-08-07T01:22:29;99514.63;;;15.38;94.66
41800;BME280;27468;47.460;19.034;2023-08-07T01:24:54;99555.31;;;15.56;94.08
41800;BME280;27468;47.460;19.034;2023-08-07T01:33:17;99559.28;;;15.64;93.57
41800;BME280;27468;47.460;19.034;2023-08-07T01:35:51;99527.75;;;15.41;95.41
41800;BME280;27468;47.460;19.034;2023-08-07T01:38:17;99537.97;;;15.48;91.74
41800;BME280;27468;47.460;19.034;2023-08-07T01:40:44;99562.63;;;15.68;94.70
41800;BME280;27468;47.460;19.034;2023-08-07T01:43:10;99557.47;;;15.65;93.80
41800;BME280;27468;47.460;19.034;2023-08-07T01:45:36;99570.69;;;15.66;89.41
41800;BME280;27468;47.460;19.034;2023-08-07T01:48:01;99563.56;;;15.67;87.40
41800;BME280;27468;47.460;19.034;2023-08-07T01:50:27;99551.78;;;15.55;88.40
41800;BME280;27468;47.460;19.034;2023-08-07T01:52:53;99567.00;;;15.69;86.67
41800;BME280;27468;47.460;19.034;2023-08-07T01:55:19;99514.63;;;15.38;85.21
41800;BME280;27468;47.460;19.034;2023-08-07T01:57:45;99580.22;;;15.70;91.49
41800;BME280;27468;47.460;19.034;2023-08-07T02:00:11;99554.97;;;15.62;89.12
41800;BME280;27468;47.460;19.034;2023-08-07T02:02:37;99569.03;;;15.64;92.25
41800;BME280;27468;47.460;19.034;2023-08-07T02:05:03;99579.25;;;15.71;87.50
41800;BME280;27468;47.460;19.034;2023-08-07T02:07:29;99574.72;;;15.58;91.03
41800;BME280;27468;47.460;19.034;2023-08-07T02:09:54;99577.72;;;15.67;91.92
41800;BME280;27468;47.460;19.034;2023-08-07T02:12:20;99574.28;;;15.65;90.65
41800;BME280;27468;47.460;19.034;2023-08-07T02:14:45;99585.00;;;15.64;89.78
41800;BME280;27468;47.460;19.034;2023-08-07T02:17:11;99588.84;;;15.58;87.86
41800;BME280;27468;47.460;19.034;2023-08-07T02:19:36;99578.22;;;15.58;89.04
41800;BME280;27468;47.460;19.034;2023-08-07T02:22:02;99530.97;;;15.30;88.72
41800;BME280;27468;47.460;19.034;2023-08-07T02:24:28;99589.84;;;15.56;88.15
41800;BME280;27468;47.460;19.034;2023-08-07T02:26:53;99537.47;;;15.25;89.04
41800;BME280;27468;47.460;19.034;2023-08-07T02:29:19;99565.72;;;15.43;86.51
41800;BME280;27468;47.460;19.034;2023-08-07T02:31:44;99561.75;;;15.34;85.74
41800;BME280;27468;47.460;19.034;2023-08-07T02:34:09;99546.28;;;15.25;89.70
41800;BME280;27468;47.460;19.034;2023-08-07T02:36:35;99566.13;;;15.35;85.80
41800;BME280;27468;47.460;19.034;2023-08-07T02:39:00;99566.97;;;15.36;88.76
41800;BME280;27468;47.460;19.034;2023-08-07T02:41:26;99572.91;;;15.41;86.69
41800;BME280;27468;47.460;19.034;2023-08-07T02:43:51;99558.31;;;15.32;86.93
41800;BME280;27468;47.460;19.034;2023-08-07T02:46:16;99507.66;;;15.02;84.47
41800;BME280;27468;47.460;19.034;2023-08-07T02:48:43;99586.28;;;15.39;87.71
41800;BME280;27468;47.460;19.034;2023-08-07T02:51:09;99510.50;;;14.99;89.01
41800;BME280;27468;47.460;19.034;2023-08-07T02:53:34;99559.25;;;15.31;85.81
41800;BME280;27468;47.460;19.034;2023-08-07T02:56:00;99562.06;;;15.28;86.62
41800;BME280;27468;47.460;19.034;2023-08-07T02:58:25;99568.31;;;15.27;86.20
41800;BME280;27468;47.460;19.034;2023-08-07T03:00:51;99581.44;;;15.30;83.84
41800;BME280;27468;47.460;19.034;2023-08-07T03:03:16;99553.72;;;15.18;87.55
41800;BME280;27468;47.460;19.034;2023-08-07T03:05:49;99585.88;;;15.30;87.20
41800;BME280;27468;47.460;19.034;2023-08-07T03:08:15;99533.44;;;15.00;88.09
41800;BME280;27468;47.460;19.034;2023-08-07T03:10:40;99570.56;;;15.17;86.27
41800;BME280;27468;47.460;19.034;2023-08-07T03:13:06;99573.31;;;15.16;82.30
41800;BME280;27468;47.460;19.034;2023-08-07T03:15:31;99535.00;;;14.87;85.67
41800;BME280;27468;47.460;19.034;2023-08-07T03:17:57;99535.63;;;14.92;84.67
41800;BME280;27468;47.460;19.034;2023-08-07T03:20:22;99585.72;;;15.15;91.29
41800;BME280;27468;47.460;19.034;2023-08-07T03:22:47;99554.84;;;14.97;88.35
41800;BME280;27468;47.460;19.034;2023-08-07T03:25:13;99588.72;;;14.92;85.41
41800;BME280;27468;47.460;19.034;2023-08-07T03:27:38;99595.00;;;15.07;89.01
41800;BME280;27468;47.460;19.034;2023-08-07T03:30:04;99595.88;;;15.07;88.19
41800;BME280;27468;47.460;19.034;2023-08-07T03:32:30;99591.59;;;15.05;90.16
41800;BME280;27468;47.460;19.034;2023-08-07T03:34:55;99584.25;;;15.10;93.53
41800;BME280;27468;47.460;19.034;2023-08-07T03:37:20;99589.78;;;15.05;90.17
41800;BME280;27468;47.460;19.034;2023-08-07T03:39:46;99597.06;;;15.02;87.93
41800;BME280;27468;47.460;19.034;2023-08-07T03:42:13;99572.41;;;15.00;86.62
41800;BME280;27468;47.460;19.034;2023-08-07T03:44:39;99593.94;;;14.94;86.67
41800;BME280;27468;47.460;19.034;2023-08-07T03:47:05;99582.78;;;14.87;84.03
41800;BME280;27468;47.460;19.034;2023-08-07T03:49:31;99618.31;;;15.02;83.92
41800;BME280;27468;47.460;19.034;2023-08-07T03:51:56;99610.44;;;15.00;87.46
41800;BME280;27468;47.460;19.034;2023-08-07T03:54:24;99603.00;;;14.90;84.43
41800;BME280;27468;47.460;19.034;2023-08-07T03:56:49;99609.16;;;14.90;84.07
41800;BME280;27468;47.460;19.034;2023-08-07T03:59:16;99629.38;;;14.93;84.26
41800;BME280;27468;47.460;19.034;2023-08-07T04:01:43;99630.03;;;14.98;85.67
41800;BME280;27468;47.460;19.034;2023-08-07T04:04:08;99626.66;;;14.94;87.48
41800;BME280;27468;47.460;19.034;2023-08-07T04:06:34;99617.75;;;14.95;86.82
41800;BME280;27468;47.460;19.034;2023-08-07T04:08:59;99622.91;;;14.98;85.13
41800;BME280;27468;47.460;19.034;2023-08-07T04:11:25;99601.50;;;14.84;85.48
41800;BME280;27468;47.460;19.034;2023-08-07T04:13:51;99632.19;;;15.07;86.56
41800;BME280;27468;47.460;19.034;2023-08-07T04:16:17;99631.66;;;15.00;86.26
41800;BME280;27468;47.460;19.034;2023-08-07T04:18:42;99628.94;;;15.02;89.42
41800;BME280;27468;47.460;19.034;2023-08-07T04:21:08;99631.75;;;14.99;83.23
41800;BME280;27468;47.460;19.034;2023-08-07T04:23:33;99606.72;;;14.85;85.65
41800;BME280;27468;47.460;19.034;2023-08-07T04:25:59;99642.34;;;14.99;84.90
41800;BME280;27468;47.460;19.034;2023-08-07T04:28:28;99646.31;;;15.07;83.67
41800;BME280;27468;47.460;19.034;2023-08-07T04:30:53;99651.88;;;15.20;85.78
41800;BME280;27468;47.460;19.034;2023-08-07T04:33:20;99634.97;;;15.57;85.67
41800;BME280;27468;47.460;19.034;2023-08-07T04:35:45;99643.16;;;16.34;80.96
41800;BME280;27468;47.460;19.034;2023-08-07T04:38:12;99627.06;;;17.14;78.07
41800;BME280;27468;47.460;19.034;2023-08-07T04:40:43;99633.97;;;18.05;74.14
41800;BME280;27468;47.460;19.034;2023-08-07T04:43:09;99618.88;;;18.47;66.52
41800;BME280;27468;47.460;19.034;2023-08-07T04:45:34;99637.72;;;18.99;64.13
41800;BME280;27468;47.460;19.034;2023-08-07T04:47:59;99631.69;;;19.23;65.96
41800;BME280;27468;47.460;19.034;2023-08-07T04:50:25;99580.41;;;19.43;63.96
41800;BME280;27468;47.460;19.034;2023-08-07T04:52:51;99626.03;;;20.29;66.72
41800;BME280;27468;47.460;19.034;2023-08-07T04:55:16;99629.53;;;20.67;62.35
41800;BME280;27468;47.460;19.034;2023-08-07T04:57:42;99606.47;;;21.13;59.27
41800;BME280;27468;47.460;19.034;2023-08-07T05:00:07;99616.56;;;21.33;53.62
41800;BME280;27468;47.460;19.034;2023-08-07T05:02:33;99611.22;;;21.44;53.93
41800;BME280;27468;47.460;19.034;2023-08-07T05:04:59;99620.78;;;21.00;58.85
41800;BME280;27468;47.460;19.034;2023-08-07T05:07:24;99621.97;;;20.36;57.07
41800;BME280;27468;47.460;19.034;2023-08-07T05:09:49;99608.44;;;19.75;59.78
41800;BME280;27468;47.460;19.034;2023-08-07T05:12:16;99601.25;;;19.38;58.43
41800;BME280;27468;47.460;19.034;2023-08-07T05:14:41;99632.94;;;19.69;64.46
41800;BME280;27468;47.460;19.034;2023-08-07T05:17:06;99630.66;;;19.38;57.91
41800;BME280;27468;47.460;19.034;2023-08-07T05:19:32;99625.22;;;19.00;63.74
41800;BME280;27468;47.460;19.034;2023-08-07T05:21:57;99622.75;;;18.56;61.03
41800;BME280;27468;47.460;19.034;2023-08-07T05:24:23;99618.16;;;18.17;63.99
41800;BME280;27468;47.460;19.034;2023-08-07T05:26:48;99575.53;;;17.74;66.15
41800;BME280;27468;47.460;19.034;2023-08-07T05:29:13;99559.00;;;17.53;65.15
41800;BME280;27468;47.460;19.034;2023-08-07T05:31:39;99638.75;;;17.72;65.85
41800;BME280;27468;47.460;19.034;2023-08-07T05:34:04;99655.25;;;17.63;68.04
41800;BME280;27468;47.460;19.034;2023-08-07T05:36:30;99610.00;;;17.33;68.10
41800;BME280;27468;47.460;19.034;2023-08-07T05:38:57;99632.94;;;17.49;68.57
41800;BME280;27468;47.460;19.034;2023-08-07T05:41:22;99667.88;;;17.45;69.88
41800;BME280;27468;47.460;19.034;2023-08-07T05:43:47;99643.97;;;17.43;66.92
41800;BME280;27468;47.460;19.034;2023-08-07T05:46:13;99652.75;;;17.45;66.21
41800;BME280;27468;47.460;19.034;2023-08-07T05:48:38;99669.53;;;17.62;73.21
41800;BME280;27468;47.460;19.034;2023-08-07T05:51:03;99647.41;;;17.45;70.38
41800;BME280;27468;47.460;19.034;2023-08-07T05:53:29;99685.28;;;17.66;67.04
41800;BME280;27468;47.460;19.034;2023-08-07T05:55:55;99654.41;;;17.62;66.26
41800;BME280;27468;47.460;19.034;2023-08-07T05:58:21;99641.16;;;17.61;64.43
41800;BME280;27468;47.460;19.034;2023-08-07T06:00:46;99664.94;;;17.79;65.56
41800;BME280;27468;47.460;19.034;2023-08-07T06:03:12;99693.31;;;17.95;65.64
41800;BME280;27468;47.460;19.034;2023-08-07T06:05:37;99680.09;;;18.07;73.36
41800;BME280;27468;47.460;19.034;2023-08-07T06:08:03;99696.84;;;18.09;62.72
41800;BME280;27468;47.460;19.034;2023-08-07T06:10:29;99669.59;;;18.04;68.48
41800;BME280;27468;47.460;19.034;2023-08-07T06:12:54;99674.19;;;18.17;62.94
41800;BME280;27468;47.460;19.034;2023-08-07T06:15:20;99708.06;;;18.57;69.53
41800;BME280;27468;47.460;19.034;2023-08-07T06:17:45;99650.66;;;18.23;61.43
41800;BME280;27468;47.460;19.034;2023-08-07T06:20:11;99678.66;;;18.44;66.35
41800;BME280;27468;47.460;19.034;2023-08-07T06:22:39;99673.84;;;18.49;60.56
41800;BME280;27468;47.460;19.034;2023-08-07T06:25:05;99698.94;;;18.75;60.94
41800;BME280;27468;47.460;19.034;2023-08-07T06:27:31;99718.38;;;18.77;57.11
41800;BME280;27468;47.460;19.034;2023-08-07T06:29:57;99692.16;;;18.56;63.06
41800;BME280;27468;47.460;19.034;2023-08-07T06:32:23;99691.31;;;18.55;65.53
41800;BME280;27468;47.460;19.034;2023-08-07T06:34:48;99730.50;;;18.69;65.15
41800;BME280;27468;47.460;19.034;2023-08-07T06:37:13;99751.00;;;18.68;67.59
41800;BME280;27468;47.460;19.034;2023-08-07T06:39:39;99738.69;;;18.52;63.49
41800;BME280;27468;47.460;19.034;2023-08-07T06:42:04;99744.63;;;18.42;63.62
41800;BME280;27468;47.460;19.034;2023-08-07T06:44:30;99709.63;;;18.19;66.83
41800;BME280;27468;47.460;19.034;2023-08-07T06:46:55;99732.31;;;18.26;62.88
41800;BME280;27468;47.460;19.034;2023-08-07T06:49:21;99753.97;;;18.35;65.94
41800;BME280;27468;47.460;19.034;2023-08-07T06:51:46;99745.19;;;18.47;71.06
41800;BME280;27468;47.460;19.034;2023-08-07T06:54:11;99705.72;;;18.24;71.11
41800;BME280;27468;47.460;19.034;2023-08-07T06:56:37;99709.16;;;18.26;66.88
41800;BME280;27468;47.460;19.034;2023-08-07T06:59:06;99755.75;;;18.49;71.88
41800;BME280;27468;47.460;19.034;2023-08-07T07:01:31;99714.03;;;18.34;65.27
41800;BME280;27468;47.460;19.034;2023-08-07T07:03:57;99742.22;;;18.52;66.17
41800;BME280;27468;47.460;19.034;2023-08-07T07:06:23;99746.16;;;18.46;68.54
41800;BME280;27468;47.460;19.034;2023-08-07T07:08:51;99749.25;;;18.53;66.34
41800;BME280;27468;47.460;19.034;2023-08-07T07:11:19;99742.03;;;18.55;61.87
41800;BME280;27468;47.460;19.034;2023-08-07T07:13:45;99757.41;;;18.66;60.98
41800;BME280;27468;47.460;19.034;2023-08-07T07:16:11;99724.94;;;18.58;63.08
41800;BME280;27468;47.460;19.034;2023-08-07T07:18:38;99752.16;;;18.78;59.89
41800;BME280;27468;47.460;19.034;2023-08-07T07:21:03;99743.38;;;18.76;58.18
41800;BME280;27468;47.460;19.034;2023-08-07T07:23:29;99740.88;;;18.88;61.27
41800;BME280;27468;47.460;19.034;2023-08-07T07:25:54;99712.06;;;18.93;66.42
41800;BME280;27468;47.460;19.034;2023-08-07T07:28:20;99751.63;;;19.27;67.16
41800;BME280;27468;47.460;19.034;2023-08-07T07:30:45;99745.03;;;19.33;62.01
41800;BME280;27468;47.460;19.034;2023-08-07T07:33:11;99733.75;;;19.42;61.06
41800;BME280;27468;47.460;19.034;2023-08-07T07:35:38;99769.44;;;19.55;59.69
41800;BME280;27468;47.460;19.034;2023-08-07T07:38:05;99770.84;;;19.61;64.73
41800;BME280;27468;47.460;19.034;2023-08-07T07:40:31;99759.50;;;19.57;61.39
41800;BME280;27468;47.460;19.034;2023-08-07T07:42:56;99726.56;;;19.42;65.58
41800;BME280;27468;47.460;19.034;2023-08-07T07:45:21;99761.78;;;19.49;61.17
41800;BME280;27468;47.460;19.034;2023-08-07T07:47:47;99780.78;;;19.44;63.49
41800;BME280;27468;47.460;19.034;2023-08-07T07:50:12;99785.50;;;19.41;57.53
41800;BME280;27468;47.460;19.034;2023-08-07T07:52:39;99790.06;;;19.53;70.55
41800;BME280;27468;47.460;19.034;2023-08-07T07:55:05;99746.66;;;19.35;65.94
41800;BME280;27468;47.460;19.034;2023-08-07T07:57:30;99776.72;;;19.66;60.88
41800;BME280;27468;47.460;19.034;2023-08-07T07:59:56;99800.50;;;19.83;63.85
41800;BME280;27468;47.460;19.034;2023-08-07T08:02:22;99802.63;;;19.78;58.43
41800;BME280;27468;47.460;19.034;2023-08-07T08:04:50;99789.03;;;19.68;62.62
41800;BME280;27468;47.460;19.034;2023-08-07T08:07:16;99797.28;;;19.78;56.77
41800;BME280;27468;47.460;19.034;2023-08-07T08:09:41;99808.38;;;19.99;65.31
41800;BME280;27468;47.460;19.034;2023-08-07T08:12:07;99817.72;;;20.19;58.68
41800;BME280;27468;47.460;19.034;2023-08-07T08:14:33;99793.44;;;20.22;55.00
41800;BME280;27468;47.460;19.034;2023-08-07T08:16:58;99790.94;;;20.31;54.91
41800;BME280;27468;47.460;19.034;2023-08-07T08:19:24;99760.09;;;20.26;62.65
41800;BME280;27468;47.460;19.034;2023-08-07T08:21:49;99766.78;;;20.20;53.00
41800;BME280;27468;47.460;19.034;2023-08-07T08:24:14;99827.72;;;20.55;58.26
41800;BME280;27468;47.460;19.034;2023-08-07T08:26:40;99801.22;;;20.37;52.16
41800;BME280;27468;47.460;19.034;2023-08-07T08:29:06;99784.84;;;20.17;50.33
41800;BME280;27468;47.460;19.034;2023-08-07T08:31:33;99798.56;;;20.37;54.32
41800;BME280;27468;47.460;19.034;2023-08-07T08:33:59;99779.41;;;20.43;65.63
41800;BME280;27468;47.460;19.034;2023-08-07T08:36:24;99831.28;;;20.68;59.93
41800;BME280;27468;47.460;19.034;2023-08-07T08:38:50;99777.25;;;20.36;56.45
41800;BME280;27468;47.460;19.034;2023-08-07T08:41:16;99838.00;;;20.48;59.22
41800;BME280;27468;47.460;19.034;2023-08-07T08:43:45;99818.25;;;20.36;56.85
41800;BME280;27468;47.460;19.034;2023-08-07T08:46:14;99844.66;;;20.55;61.47
41800;BME280;27468;47.460;19.034;2023-08-07T08:48:44;99856.22;;;20.56;56.99
41800;BME280;27468;47.460;19.034;2023-08-07T08:51:12;99847.09;;;20.46;52.60
41800;BME280;27468;47.460;19.034;2023-08-07T08:53:38;99795.13;;;20.23;54.53
41800;BME280;27468;47.460;19.034;2023-08-07T08:56:05;99863.72;;;20.51;51.04
41800;BME280;27468;47.460;19.034;2023-08-07T08:58:31;99858.69;;;20.46;58.90
41800;BME280;27468;47.460;19.034;2023-08-07T09:00:57;99865.53;;;20.50;64.15
41800;BME280;27468;47.460;19.034;2023-08-07T09:03:24;99836.47;;;20.31;56.69
41800;BME280;27468;47.460;19.034;2023-08-07T09:05:53;99858.41;;;20.36;52.49
41800;BME280;27468;47.460;19.034;2023-08-07T09:08:22;99857.28;;;20.53;52.81
41800;BME280;27468;47.460;19.034;2023-08-07T09:10:48;99848.19;;;20.56;55.96
41800;BME280;27468;47.460;19.034;2023-08-07T09:13:15;99865.75;;;20.47;51.19
41800;BME280;27468;47.460;19.034;2023-08-07T09:15:43;99865.53;;;20.50;56.23
41800;BME280;27468;47.460;19.034;2023-08-07T09:18:13;99868.91;;;20.27;53.36
41800;BME280;27468;47.460;19.034;2023-08-07T09:20:39;99852.06;;;20.12;53.13
41800;BME280;27468;47.460;19.034;2023-08-07T09:23:05;99858.28;;;20.13;53.40
41800;BME280;27468;47.460;19.034;2023-08-07T09:25:31;99833.31;;;19.99;56.37
41800;BME280;27468;47.460;19.034;2023-08-07T09:27:57;99852.06;;;20.25;54.42
41800;BME280;27468;47.460;19.034;2023-08-07T09:30:29;99880.84;;;20.48;57.89
41800;BME280;27468;47.460;19.034;2023-08-07T09:32:59;99861.59;;;20.56;60.78
41800;BME280;27468;47.460;19.034;2023-08-07T09:35:25;99832.59;;;20.35;52.33
41800;BME280;27468;47.460;19.034;2023-08-07T09:37:50;99875.50;;;20.48;59.96
41800;BME280;27468;47.460;19.034;2023-08-07T09:40:17;99869.34;;;20.21;51.93
41800;BME280;27468;47.460;19.034;2023-08-07T09:42:42;99864.72;;;20.23;58.13
41800;BME280;27468;47.460;19.034;2023-08-07T09:45:28;99878.31;;;20.32;55.02
41800;BME280;27468;47.460;19.034;2023-08-07T09:48:03;99891.41;;;20.37;52.86
41800;BME280;27468;47.460;19.034;2023-08-07T09:50:30;99898.41;;;20.39;54.15
41800;BME280;27468;47.460;19.034;2023-08-07T09:52:56;99883.94;;;20.42;52.41
41800;BME280;27468;47.460;19.034;2023-08-07T09:55:22;99895.56;;;20.68;57.55
41800;BME280;27468;47.460;19.034;2023-08-07T09:57:48;99890.53;;;20.76;53.50
41800;BME280;27468;47.460;19.034;2023-08-07T10:00:14;99887.41;;;20.82;54.82
41800;BME280;27468;47.460;19.034;2023-08-07T10:02:41;99847.44;;;20.79;55.27
41800;BME280;27468;47.460;19.034;2023-08-07T10:05:09;99900.38;;;20.88;53.68
41800;BME280;27468;47.460;19.034;2023-08-07T10:07:39;99843.38;;;20.61;52.68
41800;BME280;27468;47.460;19.034;2023-08-07T10:10:08;99903.16;;;20.87;50.72
41800;BME280;27468;47.460;19.034;2023-08-07T10:12:36;99881.97;;;20.71;50.18
41800;BME280;27468;47.460;19.034;2023-08-07T10:15:02;99884.28;;;20.88;49.99
41800;BME280;27468;47.460;19.034;2023-08-07T10:17:28;99903.38;;;20.96;51.86
41800;BME280;27468;47.460;19.034;2023-08-07T10:19:54;99879.25;;;20.96;53.79
41800;BME280;27468;47.460;19.034;2023-08-07T10:22:19;99902.31;;;20.73;51.84
41800;BME280;27468;47.460;19.034;2023-08-07T10:24:49;99891.88;;;20.43;55.32
41800;BME280;27468;47.460;19.034;2023-08-07T10:27:20;99930.97;;;20.46;55.01
41800;BME280;27468;47.460;19.034;2023-08-07T10:29:49;99927.00;;;20.39;57.97
41800;BME280;27468;47.460;19.034;2023-08-07T10:32:19;99922.50;;;20.39;53.48
41800;BME280;27468;47.460;19.034;2023-08-07T10:34:51;99913.53;;;20.26;56.87
41800;BME280;27468;47.460;19.034;2023-08-07T10:37:42;99929.47;;;20.42;54.92
41800;BME280;27468;47.460;19.034;2023-08-07T10:40:12;99909.25;;;20.51;50.83
41800;BME280;27468;47.460;19.034;2023-08-07T10:45:24;99921.28;;;20.70;56.48
41800;BME280;27468;47.460;19.034;2023-08-07T10:50:35;99908.72;;;20.58;50.91
41800;BME280;27468;47.460;19.034;2023-08-07T10:53:18;99882.50;;;20.36;55.17
41800;BME280;27468;47.460;19.034;2023-08-07T10:55:47;99917.28;;;20.51;50.04
41800;BME280;27468;47.460;19.034;2023-08-07T10:58:29;99931.66;;;20.62;51.65
41800;BME280;27468;47.460;19.034;2023-08-07T11:01:17;99942.81;;;20.82;54.64
41800;BME280;27468;47.460;19.034;2023-08-07T11:03:52;99953.13;;;20.75;59.43
41800;BME280;27468;47.460;19.034;2023-08-07T11:06:22;99921.63;;;20.39;53.77
41800;BME280;27468;47.460;19.034;2023-08-07T11:08:48;99922.03;;;20.33;52.02
41800;BME280;27468;47.460;19.034;2023-08-07T11:11:14;99946.88;;;20.35;54.64
41800;BME280;27468;47.460;19.034;2023-08-07T11:13:39;99946.59;;;20.39;54.89
41800;BME280;27468;47.460;19.034;2023-08-07T11:16:05;99908.84;;;20.17;56.54
41800;BME280;27468;47.460;19.034;2023-08-07T11:18:31;99954.91;;;20.62;59.89
41800;BME280;27468;47.460;19.034;2023-08-07T11:20:58;99965.97;;;20.70;61.70
41800;BME280;27468;47.460;19.034;2023-08-07T11:23:26;99955.75;;;20.35;56.89
41800;BME280;27468;47.460;19.034;2023-08-07T11:25:53;99928.06;;;20.09;57.81
41800;BME280;27468;47.460;19.034;2023-08-07T11:28:19;99876.28;;;19.84;52.97
41800;BME280;27468;47.460;19.034;2023-08-07T11:30:48;99966.84;;;20.43;55.19
41800;BME280;27468;47.460;19.034;2023-08-07T11:33:14;99969.06;;;20.37;56.04
41800;BME280;27468;47.460;19.034;2023-08-07T11:35:42;99959.38;;;20.22;55.84
41800;BME280;27468;47.460;19.034;2023-08-07T11:38:08;99952.06;;;20.11;52.75
41800;BME280;27468;47.460;19.034;2023-08-07T11:40:34;99909.06;;;19.73;54.44
41800;BME280;27468;47.460;19.034;2023-08-07T11:42:59;99963.41;;;19.88;56.80
41800;BME280;27468;47.460;19.034;2023-08-07T11:45:25;99982.28;;;19.58;54.77
41800;BME280;27468;47.460;19.034;2023-08-07T11:47:50;99900.75;;;19.08;60.43
41800;BME280;27468;47.460;19.034;2023-08-07T11:50:16;99972.91;;;19.36;62.12
41800;BME280;27468;47.460;19.034;2023-08-07T11:52:42;99942.16;;;19.15;56.92
41800;BME280;27468;47.460;19.034;2023-08-07T11:55:07;99986.47;;;19.33;60.16
41800;BME280;27468;47.460;19.034;2023-08-07T11:57:34;99923.06;;;18.78;57.90
41800;BME280;27468;47.460;19.034;2023-08-07T11:59:59;99967.94;;;19.16;58.38
41800;BME280;27468;47.460;19.034;2023-08-07T12:02:25;99978.91;;;19.26;58.56
41800;BME280;27468;47.460;19.034;2023-08-07T12:04:50;99987.78;;;19.26;57.29
41800;BME280;27468;47.460;19.034;2023-08-07T12:07:19;99979.88;;;19.39;58.31
41800;BME280;27468;47.460;19.034;2023-08-07T12:09:45;99963.44;;;19.31;58.46
41800;BME280;27468;47.460;19.034;2023-08-07T12:12:12;99948.06;;;19.20;57.41
41800;BME280;27468;47.460;19.034;2023-08-07T12:14:38;99966.41;;;19.40;57.90
41800;BME280;27468;47.460;19.034;2023-08-07T12:17:04;99925.25;;;19.29;60.79
41800;BME280;27468;47.460;19.034;2023-08-07T12:19:39;99973.69;;;19.53;56.66
41800;BME280;27468;47.460;19.034;2023-08-07T12:22:06;99954.00;;;19.39;59.09
41800;BME280;27468;47.460;19.034;2023-08-07T12:24:34;99969.13;;;19.55;56.67
41800;BME280;27468;47.460;19.034;2023-08-07T12:27:00;99924.13;;;19.33;53.78
41800;BME280;27468;47.460;19.034;2023-08-07T12:29:25;99974.13;;;19.73;58.30
41800;BME280;27468;47.460;19.034;2023-08-07T12:31:54;99990.69;;;19.52;52.81
41800;BME280;27468;47.460;19.034;2023-08-07T12:34:19;99939.69;;;19.40;57.54
41800;BME280;27468;47.460;19.034;2023-08-07T12:36:45;99972.81;;;19.38;59.54
41800;BME280;27468;47.460;19.034;2023-08-07T12:39:12;99981.19;;;19.18;56.07
41800;BME280;27468;47.460;19.034;2023-08-07T12:41:37;100015.88;;;19.33;59.56
41800;BME280;27468;47.460;19.034;2023-08-07T12:44:03;99999.91;;;19.32;59.61
41800;BME280;27468;47.460;19.034;2023-08-07T12:46:28;100002.78;;;19.29;61.54
41800;BME280;27468;47.460;19.034;2023-08-07T12:48:53;100021.13;;;19.49;65.87
41800;BME280;27468;47.460;19.034;2023-08-07T12:51:19;100002.25;;;19.52;60.10
41800;BME280;27468;47.460;19.034;2023-08-07T12:53:44;99997.34;;;19.44;62.95
41800;BME280;27468;47.460;19.034;2023-08-07T12:56:10;100008.75;;;19.62;55.09
41800;BME280;27468;47.460;19.034;2023-08-07T12:58:35;99988.59;;;19.57;55.29